sensor_id;sensor_type;location;lat;lon;timestamp;P1;durP1;ratioP1;P2;durP2;ratioP2
55835;SDS011;66908;50.988;4.780;2023-02-26T00:00:18;15.55;;;6.20;;
55835;SDS011;66908;50.988;4.780;2023-02-26T00:02:45;10.63;;;5.85;;
55835;SDS011;66908;50.988;4.780;2023-02-26T00:05:12;10.73;;;5.90;;
55835;SDS011;66908;50.988;4.780;2023-02-26T00:07:38;9.45;;;5.53;;
55835;SDS011;66908;50.988;4.780;2023-02-26T00:10:05;12.98;;;6.05;;
55835;SDS011;66908;50.988;4.780;2023-02-26T00:12:32;10.40;;;5.70;;
55835;SDS011;66908;50.988;4.780;2023-02-26T00:14:59;9.00;;;6.03;;
55835;SDS011;66908;50.988;4.780;2023-02-26T00:20:13;13.38;;;5.95;;
55835;SDS011;66908;50.988;4.780;2023-02-26T00:22:41;9.70;;;4.85;;
55835;SDS011;66908;50.988;4.780;2023-02-26T00:25:10;18.75;;;6.05;;
55835;SDS011;66908;50.988;4.780;2023-02-26T00:27:36;11.52;;;5.70;;
55835;SDS011;66908;50.988;4.780;2023-02-26T00:30:03;13.85;;;6.05;;
55835;SDS011;66908;50.988;4.780;2023-02-26T00:32:31;9.68;;;5.85;;
55835;SDS011;66908;50.988;4.780;2023-02-26T00:34:58;9.32;;;5.50;;
55835;SDS011;66908;50.988;4.780;2023-02-26T00:42:34;11.27;;;6.10;;
55835;SDS011;66908;50.988;4.780;2023-02-26T00:45:01;10.95;;;5.70;;
55835;SDS011;66908;50.988;4.780;2023-02-26T00:47:49;14.88;;;5.90;;
55835;SDS011;66908;50.988;4.780;2023-02-26T00:50:23;10.00;;;5.30;;
55835;SDS011;66908;50.988;4.780;2023-02-26T00:53:11;12.57;;;5.57;;
55835;SDS011;66908;50.988;4.780;2023-02-26T00:56:00;12.93;;;6.03;;
55835;SDS011;66908;50.988;4.780;2023-02-26T00:58:26;12.10;;;5.85;;
55835;SDS011;66908;50.988;4.780;2023-02-26T01:00:51;12.88;;;6.07;;
55835;SDS011;66908;50.988;4.780;2023-02-26T01:03:17;9.52;;;5.55;;
55835;SDS011;66908;50.988;4.780;2023-02-26T01:05:43;8.32;;;5.88;;
55835;SDS011;66908;50.988;4.780;2023-02-26T01:08:19;12.05;;;5.65;;
55835;SDS011;66908;50.988;4.780;2023-02-26T01:10:52;15.07;;;5.82;;
55835;SDS011;66908;50.988;4.780;2023-02-26T01:13:18;10.38;;;6.03;;
55835;SDS011;66908;50.988;4.780;2023-02-26T01:15:46;13.35;;;6.65;;
55835;SDS011;66908;50.988;4.780;2023-02-26T01:18:22;13.45;;;6.20;;
55835;SDS011;66908;50.988;4.780;2023-02-26T01:20:56;15.13;;;5.80;;
55835;SDS011;66908;50.988;4.780;2023-02-26T01:23:30;9.80;;;5.78;;
55835;SDS011;66908;50.988;4.780;2023-02-26T01:26:11;11.27;;;5.50;;
55835;SDS011;66908;50.988;4.780;2023-02-26T01:28:45;9.32;;;5.53;;
55835;SDS011;66908;50.988;4.780;2023-02-26T01:31:23;8.38;;;5.97;;
55835;SDS011;66908;50.988;4.780;2023-02-26T01:34:26;9.70;;;5.75;;
55835;SDS011;66908;50.988;4.780;2023-02-26T01:37:14;7.65;;;5.60;;
55835;SDS011;66908;50.988;4.780;2023-02-26T01:39:45;14.00;;;5.38;;
55835;SDS011;66908;50.988;4.780;2023-02-26T01:42:20;12.63;;;6.03;;
55835;SDS011;66908;50.988;4.780;2023-02-26T01:44:55;9.45;;;6.00;;
55835;SDS011;66908;50.988;4.780;2023-02-26T01:50:12;10.60;;;6.05;;
55835;SDS011;66908;50.988;4.780;2023-02-26T01:55:14;7.22;;;5.22;;
55835;SDS011;66908;50.988;4.780;2023-02-26T01:57:43;8.05;;;5.22;;
55835;SDS011;66908;50.988;4.780;2023-02-26T02:00:10;10.60;;;5.63;;
55835;SDS011;66908;50.988;4.780;2023-02-26T02:02:37;11.05;;;5.18;;
55835;SDS011;66908;50.988;4.780;2023-02-26T02:05:04;10.15;;;5.57;;
55835;SDS011;66908;50.988;4.780;2023-02-26T02:07:36;5.95;;;4.60;;
55835;SDS011;66908;50.988;4.780;2023-02-26T02:10:02;11.70;;;5.63;;
55835;SDS011;66908;50.988;4.780;2023-02-26T02:12:31;11.40;;;4.93;;
55835;SDS011;66908;50.988;4.780;2023-02-26T02:15:17;8.55;;;4.80;;
55835;SDS011;66908;50.988;4.780;2023-02-26T02:18:23;11.32;;;5.05;;
55835;SDS011;66908;50.988;4.780;2023-02-26T02:24:24;11.38;;;5.00;;
55835;SDS011;66908;50.988;4.780;2023-02-26T02:27:21;9.45;;;5.65;;
55835;SDS011;66908;50.988;4.780;2023-02-26T02:32:57;8.63;;;4.15;;
55835;SDS011;66908;50.988;4.780;2023-02-26T02:35:31;9.50;;;4.60;;
55835;SDS011;66908;50.988;4.780;2023-02-26T02:38:08;5.10;;;4.65;;
55835;SDS011;66908;50.988;4.780;2023-02-26T02:41:00;7.55;;;5.10;;
55835;SDS011;66908;50.988;4.780;2023-02-26T02:43:41;8.50;;;5.10;;
55835;SDS011;66908;50.988;4.780;2023-02-26T02:46:10;6.20;;;4.63;;
55835;SDS011;66908;50.988;4.780;2023-02-26T02:48:48;7.30;;;4.55;;
55835;SDS011;66908;50.988;4.780;2023-02-26T02:51:29;7.68;;;4.70;;
55835;SDS011;66908;50.988;4.780;2023-02-26T02:54:06;7.82;;;4.47;;
55835;SDS011;66908;50.988;4.780;2023-02-26T02:56:57;5.55;;;4.50;;
55835;SDS011;66908;50.988;4.780;2023-02-26T02:59:34;5.15;;;3.47;;
55835;SDS011;66908;50.988;4.780;2023-02-26T03:02:08;10.73;;;4.32;;
55835;SDS011;66908;50.988;4.780;2023-02-26T03:04:42;5.45;;;3.97;;
55835;SDS011;66908;50.988;4.780;2023-02-26T03:07:08;9.57;;;5.00;;
55835;SDS011;66908;50.988;4.780;2023-02-26T03:09:35;6.88;;;4.93;;
55835;SDS011;66908;50.988;4.780;2023-02-26T03:12:01;8.35;;;4.57;;
55835;SDS011;66908;50.988;4.780;2023-02-26T03:14:27;8.75;;;4.97;;
55835;SDS011;66908;50.988;4.780;2023-02-26T03:19:35;9.90;;;4.82;;
55835;SDS011;66908;50.988;4.780;2023-02-26T03:22:34;5.95;;;4.53;;
55835;SDS011;66908;50.988;4.780;2023-02-26T03:25:17;7.95;;;4.90;;
55835;SDS011;66908;50.988;4.780;2023-02-26T03:30:54;11.82;;;4.32;;
55835;SDS011;66908;50.988;4.780;2023-02-26T03:36:18;11.63;;;5.15;;
55835;SDS011;66908;50.988;4.780;2023-02-26T03:39:08;8.50;;;4.68;;
55835;SDS011;66908;50.988;4.780;2023-02-26T03:44:27;11.30;;;4.40;;
55835;SDS011;66908;50.988;4.780;2023-02-26T03:47:09;7.47;;;4.40;;
55835;SDS011;66908;50.988;4.780;2023-02-26T03:49:48;5.35;;;3.83;;
55835;SDS011;66908;50.988;4.780;2023-02-26T03:52:19;9.63;;;3.97;;
55835;SDS011;66908;50.988;4.780;2023-02-26T03:54:50;3.90;;;3.50;;
55835;SDS011;66908;50.988;4.780;2023-02-26T03:57:26;12.30;;;4.17;;
55835;SDS011;66908;50.988;4.780;2023-02-26T03:59:52;9.95;;;4.15;;
55835;SDS011;66908;50.988;4.780;2023-02-26T04:02:21;6.53;;;4.03;;
55835;SDS011;66908;50.988;4.780;2023-02-26T04:04:53;5.60;;;4.10;;
55835;SDS011;66908;50.988;4.780;2023-02-26T04:07:41;6.88;;;4.03;;
55835;SDS011;66908;50.988;4.780;2023-02-26T04:10:09;7.65;;;4.50;;
55835;SDS011;66908;50.988;4.780;2023-02-26T04:12:39;7.45;;;3.67;;
55835;SDS011;66908;50.988;4.780;2023-02-26T04:15:05;5.15;;;3.33;;
55835;SDS011;66908;50.988;4.780;2023-02-26T04:17:31;6.13;;;3.83;;
55835;SDS011;66908;50.988;4.780;2023-02-26T04:19:57;5.10;;;4.22;;
55835;SDS011;66908;50.988;4.780;2023-02-26T04:22:23;4.43;;;3.67;;
55835;SDS011;66908;50.988;4.780;2023-02-26T04:24:49;9.02;;;4.40;;
55835;SDS011;66908;50.988;4.780;2023-02-26T04:27:15;6.90;;;3.60;;
55835;SDS011;66908;50.988;4.780;2023-02-26T04:29:40;5.25;;;4.00;;
55835;SDS011;66908;50.988;4.780;2023-02-26T04:32:06;6.00;;;3.90;;
55835;SDS011;66908;50.988;4.780;2023-02-26T04:34:32;8.18;;;3.47;;
55835;SDS011;66908;50.988;4.780;2023-02-26T04:36:58;5.38;;;3.45;;
55835;SDS011;66908;50.988;4.780;2023-02-26T04:39:24;6.57;;;3.47;;
55835;SDS011;66908;50.988;4.780;2023-02-26T04:41:50;7.70;;;3.50;;
55835;SDS011;66908;50.988;4.780;2023-02-26T04:44:16;7.35;;;3.83;;
55835;SDS011;66908;50.988;4.780;2023-02-26T04:46:42;4.00;;;3.63;;
55835;SDS011;66908;50.988;4.780;2023-02-26T04:49:07;5.88;;;3.63;;
55835;SDS011;66908;50.988;4.780;2023-02-26T04:51:33;7.72;;;3.58;;
55835;SDS011;66908;50.988;4.780;2023-02-26T04:53:59;4.15;;;3.60;;
55835;SDS011;66908;50.988;4.780;2023-02-26T04:56:25;5.47;;;3.28;;
55835;SDS011;66908;50.988;4.780;2023-02-26T04:58:51;4.38;;;3.20;;
55835;SDS011;66908;50.988;4.780;2023-02-26T05:01:17;7.85;;;3.63;;
55835;SDS011;66908;50.988;4.780;2023-02-26T05:03:43;11.38;;;3.65;;
55835;SDS011;66908;50.988;4.780;2023-02-26T05:06:08;10.10;;;3.47;;
55835;SDS011;66908;50.988;4.780;2023-02-26T05:08:34;7.30;;;3.72;;
55835;SDS011;66908;50.988;4.780;2023-02-26T05:11:00;8.02;;;4.40;;
55835;SDS011;66908;50.988;4.780;2023-02-26T05:13:26;21.20;;;5.03;;
55835;SDS011;66908;50.988;4.780;2023-02-26T05:15:52;6.53;;;3.53;;
55835;SDS011;66908;50.988;4.780;2023-02-26T05:18:19;6.15;;;3.95;;
55835;SDS011;66908;50.988;4.780;2023-02-26T05:20:44;4.22;;;3.58;;
55835;SDS011;66908;50.988;4.780;2023-02-26T05:23:15;8.23;;;4.07;;
55835;SDS011;66908;50.988;4.780;2023-02-26T05:25:41;7.72;;;4.80;;
55835;SDS011;66908;50.988;4.780;2023-02-26T05:28:07;6.68;;;3.17;;
55835;SDS011;66908;50.988;4.780;2023-02-26T05:30:33;6.45;;;3.55;;
55835;SDS011;66908;50.988;4.780;2023-02-26T05:32:59;5.20;;;3.45;;
55835;SDS011;66908;50.988;4.780;2023-02-26T05:35:24;4.10;;;3.47;;
55835;SDS011;66908;50.988;4.780;2023-02-26T05:37:50;4.97;;;3.85;;
55835;SDS011;66908;50.988;4.780;2023-02-26T05:40:16;4.03;;;3.63;;
55835;SDS011;66908;50.988;4.780;2023-02-26T05:42:42;3.75;;;3.17;;
55835;SDS011;66908;50.988;4.780;2023-02-26T05:45:09;7.82;;;3.10;;
55835;SDS011;66908;50.988;4.780;2023-02-26T05:47:35;3.85;;;3.10;;
55835;SDS011;66908;50.988;4.780;2023-02-26T05:50:02;3.67;;;3.35;;
55835;SDS011;66908;50.988;4.780;2023-02-26T05:52:29;5.75;;;3.00;;
55835;SDS011;66908;50.988;4.780;2023-02-26T05:54:55;6.13;;;3.65;;
55835;SDS011;66908;50.988;4.780;2023-02-26T05:57:21;9.10;;;3.50;;
55835;SDS011;66908;50.988;4.780;2023-02-26T05:59:48;6.47;;;3.45;;
55835;SDS011;66908;50.988;4.780;2023-02-26T06:02:14;4.35;;;3.40;;
55835;SDS011;66908;50.988;4.780;2023-02-26T06:04:40;8.82;;;3.42;;
55835;SDS011;66908;50.988;4.780;2023-02-26T06:07:06;5.80;;;3.30;;
55835;SDS011;66908;50.988;4.780;2023-02-26T06:09:32;4.65;;;3.20;;
55835;SDS011;66908;50.988;4.780;2023-02-26T06:11:58;3.55;;;3.25;;
55835;SDS011;66908;50.988;4.780;2023-02-26T06:14:24;4.05;;;3.35;;
55835;SDS011;66908;50.988;4.780;2023-02-26T06:16:50;8.10;;;3.40;;
55835;SDS011;66908;50.988;4.780;2023-02-26T06:19:16;12.45;;;3.95;;
55835;SDS011;66908;50.988;4.780;2023-02-26T06:21:42;10.90;;;4.18;;
55835;SDS011;66908;50.988;4.780;2023-02-26T06:24:08;5.68;;;3.03;;
55835;SDS011;66908;50.988;4.780;2023-02-26T06:26:34;3.50;;;3.20;;
55835;SDS011;66908;50.988;4.780;2023-02-26T06:29:00;7.65;;;3.50;;
55835;SDS011;66908;50.988;4.780;2023-02-26T06:31:26;7.10;;;3.63;;
55835;SDS011;66908;50.988;4.780;2023-02-26T06:33:52;5.95;;;3.50;;
55835;SDS011;66908;50.988;4.780;2023-02-26T06:36:18;11.52;;;3.47;;
55835;SDS011;66908;50.988;4.780;2023-02-26T06:38:44;6.15;;;2.97;;
55835;SDS011;66908;50.988;4.780;2023-02-26T06:41:10;4.30;;;3.30;;
55835;SDS011;66908;50.988;4.780;2023-02-26T06:43:36;11.38;;;2.95;;
55835;SDS011;66908;50.988;4.780;2023-02-26T06:46:02;5.82;;;3.72;;
55835;SDS011;66908;50.988;4.780;2023-02-26T06:48:28;5.47;;;3.47;;
55835;SDS011;66908;50.988;4.780;2023-02-26T06:50:54;5.30;;;3.33;;
55835;SDS011;66908;50.988;4.780;2023-02-26T06:53:20;3.72;;;2.90;;
55835;SDS011;66908;50.988;4.780;2023-02-26T06:55:48;5.95;;;3.50;;
55835;SDS011;66908;50.988;4.780;2023-02-26T06:58:15;3.80;;;3.25;;
55835;SDS011;66908;50.988;4.780;2023-02-26T07:00:41;9.77;;;3.97;;
55835;SDS011;66908;50.988;4.780;2023-02-26T07:03:14;3.60;;;3.30;;
55835;SDS011;66908;50.988;4.780;2023-02-26T07:05:41;6.47;;;3.42;;
55835;SDS011;66908;50.988;4.780;2023-02-26T07:08:07;7.72;;;3.20;;
55835;SDS011;66908;50.988;4.780;2023-02-26T07:10:33;5.65;;;3.30;;
55835;SDS011;66908;50.988;4.780;2023-02-26T07:13:00;5.28;;;3.53;;
55835;SDS011;66908;50.988;4.780;2023-02-26T07:15:26;3.67;;;3.08;;
55835;SDS011;66908;50.988;4.780;2023-02-26T07:17:53;3.58;;;3.05;;
55835;SDS011;66908;50.988;4.780;2023-02-26T07:20:19;4.40;;;3.47;;
55835;SDS011;66908;50.988;4.780;2023-02-26T07:25:12;8.55;;;3.20;;
55835;SDS011;66908;50.988;4.780;2023-02-26T07:27:39;5.93;;;3.13;;
55835;SDS011;66908;50.988;4.780;2023-02-26T07:30:06;2.85;;;2.65;;
55835;SDS011;66908;50.988;4.780;2023-02-26T07:32:32;5.38;;;3.13;;
55835;SDS011;66908;50.988;4.780;2023-02-26T07:34:58;6.00;;;3.65;;
55835;SDS011;66908;50.988;4.780;2023-02-26T07:37:24;7.05;;;3.22;;
55835;SDS011;66908;50.988;4.780;2023-02-26T07:39:50;2.95;;;2.70;;
55835;SDS011;66908;50.988;4.780;2023-02-26T07:42:16;5.88;;;3.50;;
55835;SDS011;66908;50.988;4.780;2023-02-26T07:44:42;6.38;;;3.47;;
55835;SDS011;66908;50.988;4.780;2023-02-26T07:47:08;4.68;;;3.08;;
55835;SDS011;66908;50.988;4.780;2023-02-26T07:49:35;11.27;;;4.43;;
55835;SDS011;66908;50.988;4.780;2023-02-26T07:52:01;4.88;;;2.75;;
55835;SDS011;66908;50.988;4.780;2023-02-26T07:54:28;4.60;;;3.37;;
55835;SDS011;66908;50.988;4.780;2023-02-26T07:56:53;3.63;;;2.40;;
55835;SDS011;66908;50.988;4.780;2023-02-26T07:59:19;3.25;;;2.75;;
55835;SDS011;66908;50.988;4.780;2023-02-26T08:01:45;8.68;;;4.18;;
55835;SDS011;66908;50.988;4.780;2023-02-26T08:04:11;3.38;;;3.08;;
55835;SDS011;66908;50.988;4.780;2023-02-26T08:06:37;3.55;;;2.75;;
55835;SDS011;66908;50.988;4.780;2023-02-26T08:09:03;4.85;;;3.00;;
55835;SDS011;66908;50.988;4.780;2023-02-26T08:11:29;8.00;;;3.67;;
55835;SDS011;66908;50.988;4.780;2023-02-26T08:13:59;6.88;;;2.97;;
55835;SDS011;66908;50.988;4.780;2023-02-26T08:16:25;2.92;;;2.63;;
55835;SDS011;66908;50.988;4.780;2023-02-26T08:18:51;5.20;;;2.90;;
55835;SDS011;66908;50.988;4.780;2023-02-26T08:21:17;4.18;;;3.60;;
55835;SDS011;66908;50.988;4.780;2023-02-26T08:23:43;3.58;;;2.67;;
55835;SDS011;66908;50.988;4.780;2023-02-26T08:26:09;3.22;;;2.40;;
55835;SDS011;66908;50.988;4.780;2023-02-26T08:28:37;5.95;;;2.33;;
55835;SDS011;66908;50.988;4.780;2023-02-26T08:31:04;6.30;;;2.83;;
55835;SDS011;66908;50.988;4.780;2023-02-26T08:33:30;2.40;;;2.25;;
55835;SDS011;66908;50.988;4.780;2023-02-26T08:35:57;4.93;;;2.70;;
55835;SDS011;66908;50.988;4.780;2023-02-26T08:38:26;6.97;;;2.33;;
55835;SDS011;66908;50.988;4.780;2023-02-26T08:40:53;3.03;;;2.22;;
55835;SDS011;66908;50.988;4.780;2023-02-26T08:43:19;4.90;;;2.50;;
55835;SDS011;66908;50.988;4.780;2023-02-26T08:45:46;3.50;;;2.22;;
55835;SDS011;66908;50.988;4.780;2023-02-26T08:48:12;7.32;;;3.47;;
55835;SDS011;66908;50.988;4.780;2023-02-26T08:50:39;4.47;;;2.50;;
55835;SDS011;66908;50.988;4.780;2023-02-26T08:53:05;2.47;;;2.35;;
55835;SDS011;66908;50.988;4.780;2023-02-26T08:55:31;2.88;;;2.55;;
55835;SDS011;66908;50.988;4.780;2023-02-26T08:57:57;1.77;;;1.70;;
55835;SDS011;66908;50.988;4.780;2023-02-26T09:00:23;3.33;;;2.40;;
55835;SDS011;66908;50.988;4.780;2023-02-26T09:02:49;2.20;;;2.00;;
55835;SDS011;66908;50.988;4.780;2023-02-26T09:05:15;2.95;;;2.22;;
55835;SDS011;66908;50.988;4.780;2023-02-26T09:07:42;3.40;;;2.40;;
55835;SDS011;66908;50.988;4.780;2023-02-26T09:10:08;3.92;;;2.50;;
55835;SDS011;66908;50.988;4.780;2023-02-26T09:12:35;3.13;;;2.22;;
55835;SDS011;66908;50.988;4.780;2023-02-26T09:15:01;3.10;;;2.63;;
55835;SDS011;66908;50.988;4.780;2023-02-26T09:17:29;2.20;;;2.00;;
55835;SDS011;66908;50.988;4.780;2023-02-26T09:19:55;2.92;;;2.47;;
55835;SDS011;66908;50.988;4.780;2023-02-26T09:22:21;5.32;;;2.22;;
55835;SDS011;66908;50.988;4.780;2023-02-26T09:24:47;2.58;;;2.00;;
55835;SDS011;66908;50.988;4.780;2023-02-26T09:27:13;2.40;;;2.30;;
55835;SDS011;66908;50.988;4.780;2023-02-26T09:29:39;2.65;;;2.42;;
55835;SDS011;66908;50.988;4.780;2023-02-26T09:32:05;3.83;;;2.40;;
55835;SDS011;66908;50.988;4.780;2023-02-26T09:34:35;2.20;;;2.00;;
55835;SDS011;66908;50.988;4.780;2023-02-26T09:37:02;3.35;;;1.90;;
55835;SDS011;66908;50.988;4.780;2023-02-26T09:41:56;2.30;;;1.98;;
55835;SDS011;66908;50.988;4.780;2023-02-26T09:44:28;4.88;;;2.53;;
55835;SDS011;66908;50.988;4.780;2023-02-26T09:55:22;4.68;;;2.70;;
55835;SDS011;66908;50.988;4.780;2023-02-26T09:57:59;2.25;;;2.08;;
55835;SDS011;66908;50.988;4.780;2023-02-26T10:00:35;2.75;;;2.15;;
55835;SDS011;66908;50.988;4.780;2023-02-26T10:05:43;3.35;;;2.30;;
55835;SDS011;66908;50.988;4.780;2023-02-26T10:08:38;2.75;;;2.10;;
55835;SDS011;66908;50.988;4.780;2023-02-26T10:11:30;2.53;;;1.90;;
55835;SDS011;66908;50.988;4.780;2023-02-26T10:14:03;1.90;;;1.80;;
55835;SDS011;66908;50.988;4.780;2023-02-26T10:19:10;2.80;;;1.65;;
55835;SDS011;66908;50.988;4.780;2023-02-26T10:24:42;2.15;;;1.95;;
55835;SDS011;66908;50.988;4.780;2023-02-26T10:27:17;2.28;;;2.17;;
55835;SDS011;66908;50.988;4.780;2023-02-26T10:29:58;2.17;;;1.98;;
55835;SDS011;66908;50.988;4.780;2023-02-26T10:32:36;2.40;;;2.20;;
55835;SDS011;66908;50.988;4.780;2023-02-26T10:35:13;5.00;;;2.15;;
55835;SDS011;66908;50.988;4.780;2023-02-26T10:38:07;1.98;;;1.73;;
55835;SDS011;66908;50.988;4.780;2023-02-26T10:46:11;1.98;;;1.85;;
55835;SDS011;66908;50.988;4.780;2023-02-26T10:51:49;2.33;;;2.13;;
55835;SDS011;66908;50.988;4.780;2023-02-26T10:54:26;1.77;;;1.77;;
55835;SDS011;66908;50.988;4.780;2023-02-26T10:57:01;2.13;;;1.75;;
55835;SDS011;66908;50.988;4.780;2023-02-26T10:59:28;1.38;;;1.38;;
55835;SDS011;66908;50.988;4.780;2023-02-26T11:01:54;4.03;;;1.92;;
55835;SDS011;66908;50.988;4.780;2023-02-26T11:04:21;2.00;;;1.90;;
55835;SDS011;66908;50.988;4.780;2023-02-26T11:06:59;4.38;;;1.73;;
55835;SDS011;66908;50.988;4.780;2023-02-26T11:09:36;2.28;;;2.08;;
55835;SDS011;66908;50.988;4.780;2023-02-26T11:14:31;2.03;;;1.83;;
55835;SDS011;66908;50.988;4.780;2023-02-26T11:17:00;2.10;;;1.98;;
55835;SDS011;66908;50.988;4.780;2023-02-26T11:19:35;1.70;;;1.60;;
55835;SDS011;66908;50.988;4.780;2023-02-26T11:22:03;3.08;;;1.90;;
55835;SDS011;66908;50.988;4.780;2023-02-26T11:27:13;2.10;;;2.00;;
55835;SDS011;66908;50.988;4.780;2023-02-26T11:29:41;2.55;;;2.00;;
55835;SDS011;66908;50.988;4.780;2023-02-26T11:32:18;1.80;;;1.70;;
55835;SDS011;66908;50.988;4.780;2023-02-26T11:34:48;4.75;;;1.63;;
55835;SDS011;66908;50.988;4.780;2023-02-26T11:37:23;2.15;;;1.88;;
55835;SDS011;66908;50.988;4.780;2023-02-26T11:40:05;2.88;;;1.77;;
55835;SDS011;66908;50.988;4.780;2023-02-26T11:42:44;2.67;;;1.80;;
55835;SDS011;66908;50.988;4.780;2023-02-26T11:45:15;1.77;;;1.67;;
55835;SDS011;66908;50.988;4.780;2023-02-26T11:47:43;2.00;;;1.90;;
55835;SDS011;66908;50.988;4.780;2023-02-26T11:50:13;1.92;;;1.50;;
55835;SDS011;66908;50.988;4.780;2023-02-26T11:52:44;1.58;;;1.52;;
55835;SDS011;66908;50.988;4.780;2023-02-26T11:55:20;2.97;;;1.83;;
55835;SDS011;66908;50.988;4.780;2023-02-26T11:58:20;2.47;;;1.70;;
55835;SDS011;66908;50.988;4.780;2023-02-26T12:00:48;4.10;;;1.80;;
55835;SDS011;66908;50.988;4.780;2023-02-26T12:03:21;3.65;;;1.80;;
55835;SDS011;66908;50.988;4.780;2023-02-26T12:05:50;2.20;;;1.70;;
55835;SDS011;66908;50.988;4.780;2023-02-26T12:08:23;2.05;;;1.70;;
55835;SDS011;66908;50.988;4.780;2023-02-26T12:16:15;4.80;;;2.10;;
55835;SDS011;66908;50.988;4.780;2023-02-26T12:19:07;4.38;;;2.38;;
55835;SDS011;66908;50.988;4.780;2023-02-26T12:24:51;3.38;;;1.60;;
55835;SDS011;66908;50.988;4.780;2023-02-26T12:29:47;3.50;;;2.42;;
55835;SDS011;66908;50.988;4.780;2023-02-26T12:32:21;3.28;;;1.95;;
55835;SDS011;66908;50.988;4.780;2023-02-26T12:37:38;3.28;;;1.40;;
55835;SDS011;66908;50.988;4.780;2023-02-26T12:45:28;2.63;;;2.47;;
55835;SDS011;66908;50.988;4.780;2023-02-26T12:57:02;1.92;;;1.83;;
55835;SDS011;66908;50.988;4.780;2023-02-26T12:59:42;2.28;;;1.52;;
55835;SDS011;66908;50.988;4.780;2023-02-26T13:05:26;1.92;;;1.80;;
55835;SDS011;66908;50.988;4.780;2023-02-26T13:19:47;1.80;;;1.70;;
55835;SDS011;66908;50.988;4.780;2023-02-26T13:22:24;4.10;;;1.95;;
55835;SDS011;66908;50.988;4.780;2023-02-26T13:25:02;1.88;;;1.77;;
55835;SDS011;66908;50.988;4.780;2023-02-26T13:27:50;1.70;;;1.67;;
55835;SDS011;66908;50.988;4.780;2023-02-26T13:32:46;2.20;;;2.00;;
55835;SDS011;66908;50.988;4.780;2023-02-26T13:37:52;2.03;;;1.92;;
55835;SDS011;66908;50.988;4.780;2023-02-26T13:43:19;1.98;;;1.70;;
55835;SDS011;66908;50.988;4.780;2023-02-26T13:51:26;3.13;;;1.77;;
55835;SDS011;66908;50.988;4.780;2023-02-26T13:54:08;2.53;;;1.70;;
55835;SDS011;66908;50.988;4.780;2023-02-26T13:57:23;2.13;;;1.73;;
55835;SDS011;66908;50.988;4.780;2023-02-26T14:02:56;1.75;;;1.50;;
55835;SDS011;66908;50.988;4.780;2023-02-26T14:18:30;4.10;;;1.65;;
55835;SDS011;66908;50.988;4.780;2023-02-26T14:26:27;2.90;;;1.80;;
55835;SDS011;66908;50.988;4.780;2023-02-26T14:31:46;3.88;;;1.77;;
55835;SDS011;66908;50.988;4.780;2023-02-26T14:34:24;5.63;;;2.33;;
55835;SDS011;66908;50.988;4.780;2023-02-26T14:37:15;1.30;;;1.23;;
55835;SDS011;66908;50.988;4.780;2023-02-26T14:39:56;1.67;;;1.58;;
55835;SDS011;66908;50.988;4.780;2023-02-26T14:45:08;3.03;;;1.95;;
55835;SDS011;66908;50.988;4.780;2023-02-26T14:47:42;2.60;;;2.35;;
55835;SDS011;66908;50.988;4.780;2023-02-26T14:50:16;2.10;;;1.90;;
55835;SDS011;66908;50.988;4.780;2023-02-26T14:52:55;2.58;;;2.38;;
55835;SDS011;66908;50.988;4.780;2023-02-26T14:55:34;2.15;;;1.92;;
55835;SDS011;66908;50.988;4.780;2023-02-26T15:01:07;2.00;;;1.90;;
55835;SDS011;66908;50.988;4.780;2023-02-26T15:12:11;3.33;;;2.85;;
55835;SDS011;66908;50.988;4.780;2023-02-26T15:25:42;1.88;;;1.77;;
55835;SDS011;66908;50.988;4.780;2023-02-26T15:28:13;4.05;;;1.83;;
55835;SDS011;66908;50.988;4.780;2023-02-26T15:30:49;1.83;;;1.73;;
55835;SDS011;66908;50.988;4.780;2023-02-26T15:33:16;2.67;;;1.90;;
55835;SDS011;66908;50.988;4.780;2023-02-26T15:35:44;3.95;;;2.05;;
55835;SDS011;66908;50.988;4.780;2023-02-26T15:38:13;1.73;;;1.52;;
55835;SDS011;66908;50.988;4.780;2023-02-26T15:40:39;2.50;;;2.00;;
55835;SDS011;66908;50.988;4.780;2023-02-26T15:43:06;1.88;;;1.77;;
55835;SDS011;66908;50.988;4.780;2023-02-26T15:45:37;1.90;;;1.77;;
55835;SDS011;66908;50.988;4.780;2023-02-26T15:48:06;2.88;;;2.22;;
55835;SDS011;66908;50.988;4.780;2023-02-26T15:50:39;1.75;;;1.65;;
55835;SDS011;66908;50.988;4.780;2023-02-26T15:53:10;2.63;;;2.42;;
55835;SDS011;66908;50.988;4.780;2023-02-26T15:55:49;3.03;;;2.65;;
55835;SDS011;66908;50.988;4.780;2023-02-26T15:58:22;1.63;;;1.55;;
55835;SDS011;66908;50.988;4.780;2023-02-26T16:00:55;3.67;;;2.70;;
55835;SDS011;66908;50.988;4.780;2023-02-26T16:03:27;2.33;;;1.83;;
55835;SDS011;66908;50.988;4.780;2023-02-26T16:05:55;4.10;;;3.42;;
55835;SDS011;66908;50.988;4.780;2023-02-26T16:08:22;2.95;;;2.75;;
55835;SDS011;66908;50.988;4.780;2023-02-26T16:10:49;2.45;;;2.13;;
55835;SDS011;66908;50.988;4.780;2023-02-26T16:13:21;2.58;;;2.38;;
55835;SDS011;66908;50.988;4.780;2023-02-26T16:15:57;3.28;;;2.30;;
55835;SDS011;66908;50.988;4.780;2023-02-26T16:18:30;3.30;;;1.83;;
55835;SDS011;66908;50.988;4.780;2023-02-26T16:20:58;1.80;;;1.70;;
55835;SDS011;66908;50.988;4.780;2023-02-26T16:26:01;3.05;;;2.35;;
55835;SDS011;66908;50.988;4.780;2023-02-26T16:28:31;2.63;;;2.40;;
55835;SDS011;66908;50.988;4.780;2023-02-26T16:31:02;2.90;;;2.50;;
55835;SDS011;66908;50.988;4.780;2023-02-26T16:33:31;2.88;;;2.58;;
55835;SDS011;66908;50.988;4.780;2023-02-26T16:36:03;2.30;;;2.10;;
55835;SDS011;66908;50.988;4.780;2023-02-26T16:38:31;3.38;;;2.75;;
55835;SDS011;66908;50.988;4.780;2023-02-26T16:41:08;2.50;;;2.30;;
55835;SDS011;66908;50.988;4.780;2023-02-26T16:46:22;2.43;;;2.20;;
55835;SDS011;66908;50.988;4.780;2023-02-26T16:51:55;4.45;;;3.00;;
55835;SDS011;66908;50.988;4.780;2023-02-26T16:54:23;3.42;;;3.13;;
55835;SDS011;66908;50.988;4.780;2023-02-26T16:57:05;7.50;;;2.67;;
55835;SDS011;66908;50.988;4.780;2023-02-26T16:59:38;3.95;;;2.60;;
55835;SDS011;66908;50.988;4.780;2023-02-26T17:02:12;3.03;;;2.10;;
55835;SDS011;66908;50.988;4.780;2023-02-26T17:04:43;3.05;;;2.83;;
55835;SDS011;66908;50.988;4.780;2023-02-26T17:07:16;2.40;;;2.17;;
55835;SDS011;66908;50.988;4.780;2023-02-26T17:09:56;2.38;;;2.17;;
55835;SDS011;66908;50.988;4.780;2023-02-26T17:14:59;3.08;;;2.67;;
55835;SDS011;66908;50.988;4.780;2023-02-26T17:17:25;3.67;;;2.80;;
55835;SDS011;66908;50.988;4.780;2023-02-26T17:19:51;2.65;;;2.45;;
55835;SDS011;66908;50.988;4.780;2023-02-26T17:22:20;4.97;;;2.72;;
55835;SDS011;66908;50.988;4.780;2023-02-26T17:24:50;4.95;;;2.92;;
55835;SDS011;66908;50.988;4.780;2023-02-26T17:27:27;3.40;;;2.42;;
55835;SDS011;66908;50.988;4.780;2023-02-26T17:29:58;3.78;;;3.05;;
55835;SDS011;66908;50.988;4.780;2023-02-26T17:32:26;5.97;;;2.97;;
55835;SDS011;66908;50.988;4.780;2023-02-26T17:34:54;4.70;;;3.80;;
55835;SDS011;66908;50.988;4.780;2023-02-26T17:37:20;9.93;;;4.50;;
55835;SDS011;66908;50.988;4.780;2023-02-26T17:39:54;9.25;;;4.22;;
55835;SDS011;66908;50.988;4.780;2023-02-26T17:42:21;7.57;;;4.27;;
55835;SDS011;66908;50.988;4.780;2023-02-26T17:44:48;8.68;;;4.90;;
55835;SDS011;66908;50.988;4.780;2023-02-26T17:47:15;4.43;;;3.88;;
55835;SDS011;66908;50.988;4.780;2023-02-26T17:49:45;3.42;;;3.13;;
55835;SDS011;66908;50.988;4.780;2023-02-26T17:52:12;7.18;;;3.72;;
55835;SDS011;66908;50.988;4.780;2023-02-26T17:54:38;3.58;;;3.20;;
55835;SDS011;66908;50.988;4.780;2023-02-26T17:57:05;5.82;;;3.30;;
55835;SDS011;66908;50.988;4.780;2023-02-26T17:59:32;9.15;;;3.88;;
55835;SDS011;66908;50.988;4.780;2023-02-26T18:01:58;5.75;;;3.70;;
55835;SDS011;66908;50.988;4.780;2023-02-26T18:04:24;4.05;;;3.60;;
55835;SDS011;66908;50.988;4.780;2023-02-26T18:06:51;4.47;;;3.80;;
55835;SDS011;66908;50.988;4.780;2023-02-26T18:09:17;5.05;;;3.72;;